sensor_id;sensor_type;location;lat;lon;timestamp;temperature;humidity
20091;DHT22;10205;49.678;6.560;2023-04-03T00:01:04;11.00;61.20
20091;DHT22;10205;49.678;6.560;2023-04-03T00:03:32;10.90;61.90
20091;DHT22;10205;49.678;6.560;2023-04-03T00:06:00;10.90;62.80
20091;DHT22;10205;49.678;6.560;2023-04-03T00:08:29;10.90;64.40
20091;DHT22;10205;49.678;6.560;2023-04-03T00:10:58;10.80;62.90
20091;DHT22;10205;49.678;6.560;2023-04-03T00:13:25;10.80;63.20
20091;DHT22;10205;49.678;6.560;2023-04-03T00:15:52;10.80;63.20
20091;DHT22;10205;49.678;6.560;2023-04-03T00:18:21;10.80;63.20
20091;DHT22;10205;49.678;6.560;2023-04-03T00:20:48;10.80;62.40
20091;DHT22;10205;49.678;6.560;2023-04-03T00:23:16;10.80;62.60
20091;DHT22;10205;49.678;6.560;2023-04-03T00:25:44;10.80;62.80
20091;DHT22;10205;49.678;6.560;2023-04-03T00:28:11;10.80;62.90
20091;DHT22;10205;49.678;6.560;2023-04-03T00:30:38;10.70;62.80
20091;DHT22;10205;49.678;6.560;2023-04-03T00:33:05;10.70;63.00
20091;DHT22;10205;49.678;6.560;2023-04-03T00:35:34;10.70;62.30
20091;DHT22;10205;49.678;6.560;2023-04-03T00:38:02;10.70;61.70
20091;DHT22;10205;49.678;6.560;2023-04-03T00:40:34;10.70;62.50
20091;DHT22;10205;49.678;6.560;2023-04-03T00:43:09;10.60;63.10
20091;DHT22;10205;49.678;6.560;2023-04-03T00:45:41;10.60;63.10
20091;DHT22;10205;49.678;6.560;2023-04-03T00:48:13;10.60;62.20
20091;DHT22;10205;49.678;6.560;2023-04-03T00:50:45;10.60;63.10
20091;DHT22;10205;49.678;6.560;2023-04-03T00:53:19;10.60;62.60
20091;DHT22;10205;49.678;6.560;2023-04-03T00:55:51;10.60;63.00
20091;DHT22;10205;49.678;6.560;2023-04-03T00:58:25;10.60;63.60
20091;DHT22;10205;49.678;6.560;2023-04-03T01:00:59;10.60;62.80
20091;DHT22;10205;49.678;6.560;2023-04-03T01:03:32;10.60;62.10
20091;DHT22;10205;49.678;6.560;2023-04-03T01:06:01;10.60;62.90
20091;DHT22;10205;49.678;6.560;2023-04-03T01:08:29;10.60;62.70
20091;DHT22;10205;49.678;6.560;2023-04-03T01:10:57;10.60;63.40
20091;DHT22;10205;49.678;6.560;2023-04-03T01:13:26;10.60;64.00
20091;DHT22;10205;49.678;6.560;2023-04-03T01:15:54;10.60;63.40
20091;DHT22;10205;49.678;6.560;2023-04-03T01:18:23;10.60;63.80
20091;DHT22;10205;49.678;6.560;2023-04-03T01:21:26;10.60;63.70
20091;DHT22;10205;49.678;6.560;2023-04-03T01:24:33;10.60;63.60
20091;DHT22;10205;49.678;6.560;2023-04-03T01:27:06;10.60;64.20
20091;DHT22;10205;49.678;6.560;2023-04-03T01:29:39;10.60;64.40
20091;DHT22;10205;49.678;6.560;2023-04-03T01:32:10;10.60;64.50
20091;DHT22;10205;49.678;6.560;2023-04-03T01:34:37;10.60;64.50
20091;DHT22;10205;49.678;6.560;2023-04-03T01:37:05;10.60;64.60
20091;DHT22;10205;49.678;6.560;2023-04-03T01:39:32;10.60;64.60
20091;DHT22;10205;49.678;6.560;2023-04-03T01:42:00;10.60;64.70
20091;DHT22;10205;49.678;6.560;2023-04-03T01:44:28;10.60;64.80
20091;DHT22;10205;49.678;6.560;2023-04-03T01:46:55;10.60;64.80
20091;DHT22;10205;49.678;6.560;2023-04-03T01:49:24;10.60;65.00
20091;DHT22;10205;49.678;6.560;2023-04-03T01:51:51;10.60;64.70
20091;DHT22;10205;49.678;6.560;2023-04-03T01:54:18;10.60;64.90
20091;DHT22;10205;49.678;6.560;2023-04-03T01:56:45;10.60;65.90
20091;DHT22;10205;49.678;6.560;2023-04-03T01:59:13;10.60;65.20
20091;DHT22;10205;49.678;6.560;2023-04-03T02:01:42;10.60;65.20
20091;DHT22;10205;49.678;6.560;2023-04-03T02:04:10;10.60;65.30
20091;DHT22;10205;49.678;6.560;2023-04-03T02:06:39;10.60;65.30
20091;DHT22;10205;49.678;6.560;2023-04-03T02:09:06;10.60;66.00
20091;DHT22;10205;49.678;6.560;2023-04-03T02:11:33;10.60;65.20
20091;DHT22;10205;49.678;6.560;2023-04-03T02:14:01;10.60;65.30
20091;DHT22;10205;49.678;6.560;2023-04-03T02:16:28;10.60;65.20
20091;DHT22;10205;49.678;6.560;2023-04-03T02:18:56;10.60;65.10
20091;DHT22;10205;49.678;6.560;2023-04-03T02:21:23;10.60;65.10
20091;DHT22;10205;49.678;6.560;2023-04-03T02:23:52;10.60;65.10
20091;DHT22;10205;49.678;6.560;2023-04-03T02:26:19;10.60;65.10
20091;DHT22;10205;49.678;6.560;2023-04-03T02:28:46;10.60;65.10
20091;DHT22;10205;49.678;6.560;2023-04-03T02:31:14;10.50;65.10
20091;DHT22;10205;49.678;6.560;2023-04-03T02:33:41;10.50;65.00
20091;DHT22;10205;49.678;6.560;2023-04-03T02:36:09;10.50;65.00
20091;DHT22;10205;49.678;6.560;2023-04-03T02:38:36;10.50;65.10
20091;DHT22;10205;49.678;6.560;2023-04-03T02:41:09;10.50;64.80
20091;DHT22;10205;49.678;6.560;2023-04-03T02:43:37;10.50;64.90
20091;DHT22;10205;49.678;6.560;2023-04-03T02:46:05;10.50;65.10
20091;DHT22;10205;49.678;6.560;2023-04-03T02:48:33;10.40;65.10
20091;DHT22;10205;49.678;6.560;2023-04-03T02:51:01;10.40;65.10
20091;DHT22;10205;49.678;6.560;2023-04-03T02:53:28;10.40;65.10
20091;DHT22;10205;49.678;6.560;2023-04-03T02:55:55;10.40;65.10
20091;DHT22;10205;49.678;6.560;2023-04-03T02:58:23;10.30;65.10
20091;DHT22;10205;49.678;6.560;2023-04-03T03:00:51;10.30;65.10
20091;DHT22;10205;49.678;6.560;2023-04-03T03:03:18;10.30;65.10
20091;DHT22;10205;49.678;6.560;2023-04-03T03:05:45;10.30;65.20
20091;DHT22;10205;49.678;6.560;2023-04-03T03:08:13;10.20;65.20
20091;DHT22;10205;49.678;6.560;2023-04-03T03:10:40;10.20;65.30
20091;DHT22;10205;49.678;6.560;2023-04-03T03:13:07;10.20;65.20
20091;DHT22;10205;49.678;6.560;2023-04-03T03:15:36;10.20;65.20
20091;DHT22;10205;49.678;6.560;2023-04-03T03:18:03;10.10;65.10
20091;DHT22;10205;49.678;6.560;2023-04-03T03:20:31;10.10;65.10
20091;DHT22;10205;49.678;6.560;2023-04-03T03:22:58;10.10;65.20
20091;DHT22;10205;49.678;6.560;2023-04-03T03:25:25;10.10;65.40
20091;DHT22;10205;49.678;6.560;2023-04-03T03:27:52;10.00;65.40
20091;DHT22;10205;49.678;6.560;2023-04-03T03:30:19;10.00;66.20
20091;DHT22;10205;49.678;6.560;2023-04-03T03:32:48;10.00;65.40
20091;DHT22;10205;49.678;6.560;2023-04-03T03:35:15;9.90;65.30
20091;DHT22;10205;49.678;6.560;2023-04-03T03:37:43;9.90;65.20
20091;DHT22;10205;49.678;6.560;2023-04-03T03:40:11;9.90;65.40
20091;DHT22;10205;49.678;6.560;2023-04-03T03:42:38;9.80;65.50
20091;DHT22;10205;49.678;6.560;2023-04-03T03:45:06;9.80;65.50
20091;DHT22;10205;49.678;6.560;2023-04-03T03:47:35;9.80;65.50
20091;DHT22;10205;49.678;6.560;2023-04-03T03:50:05;9.80;65.50
20091;DHT22;10205;49.678;6.560;2023-04-03T03:52:33;9.70;65.40
20091;DHT22;10205;49.678;6.560;2023-04-03T03:55:01;9.70;65.40
20091;DHT22;10205;49.678;6.560;2023-04-03T03:57:28;9.70;65.50
20091;DHT22;10205;49.678;6.560;2023-04-03T03:59:55;9.60;65.60
20091;DHT22;10205;49.678;6.560;2023-04-03T04:02:23;9.60;65.70
20091;DHT22;10205;49.678;6.560;2023-04-03T04:04:50;9.60;65.70
20091;DHT22;10205;49.678;6.560;2023-04-03T04:07:20;9.50;65.70
20091;DHT22;10205;49.678;6.560;2023-04-03T04:09:48;9.50;65.60
20091;DHT22;10205;49.678;6.560;2023-04-03T04:12:15;9.50;65.60
20091;DHT22;10205;49.678;6.560;2023-04-03T04:14:42;9.40;65.60
20091;DHT22;10205;49.678;6.560;2023-04-03T04:17:12;9.40;65.60
20091;DHT22;10205;49.678;6.560;2023-04-03T04:19:41;9.40;65.70
20091;DHT22;10205;49.678;6.560;2023-04-03T04:22:08;9.40;65.80
20091;DHT22;10205;49.678;6.560;2023-04-03T04:24:37;9.40;65.80
20091;DHT22;10205;49.678;6.560;2023-04-03T04:27:04;9.30;65.80
20091;DHT22;10205;49.678;6.560;2023-04-03T04:29:31;9.30;65.70
20091;DHT22;10205;49.678;6.560;2023-04-03T04:32:01;9.30;65.70
20091;DHT22;10205;49.678;6.560;2023-04-03T04:34:29;9.20;65.70
20091;DHT22;10205;49.678;6.560;2023-04-03T04:36:56;9.20;65.90
20091;DHT22;10205;49.678;6.560;2023-04-03T04:39:23;9.20;66.70
20091;DHT22;10205;49.678;6.560;2023-04-03T04:41:52;9.10;65.90
20091;DHT22;10205;49.678;6.560;2023-04-03T04:44:19;9.10;65.90
20091;DHT22;10205;49.678;6.560;2023-04-03T04:46:46;9.10;66.00
20091;DHT22;10205;49.678;6.560;2023-04-03T04:49:14;9.10;65.90
20091;DHT22;10205;49.678;6.560;2023-04-03T04:51:41;9.00;65.90
20091;DHT22;10205;49.678;6.560;2023-04-03T04:54:10;9.00;65.90
20091;DHT22;10205;49.678;6.560;2023-04-03T04:56:39;9.00;65.90
20091;DHT22;10205;49.678;6.560;2023-04-03T04:59:07;8.90;65.90
20091;DHT22;10205;49.678;6.560;2023-04-03T05:01:34;8.90;65.50
20091;DHT22;10205;49.678;6.560;2023-04-03T05:04:02;8.90;65.50
20091;DHT22;10205;49.678;6.560;2023-04-03T05:06:29;8.80;65.70
20091;DHT22;10205;49.678;6.560;2023-04-03T05:08:57;8.80;65.80
20091;DHT22;10205;49.678;6.560;2023-04-03T05:11:24;8.80;66.00
20091;DHT22;10205;49.678;6.560;2023-04-03T05:13:52;8.70;66.00
20091;DHT22;10205;49.678;6.560;2023-04-03T05:16:20;8.70;66.10
20091;DHT22;10205;49.678;6.560;2023-04-03T05:18:48;8.70;66.20
20091;DHT22;10205;49.678;6.560;2023-04-03T05:21:15;8.70;66.30
20091;DHT22;10205;49.678;6.560;2023-04-03T05:23:43;8.60;66.30
20091;DHT22;10205;49.678;6.560;2023-04-03T05:26:10;8.60;66.30
20091;DHT22;10205;49.678;6.560;2023-04-03T05:28:37;8.60;66.40
20091;DHT22;10205;49.678;6.560;2023-04-03T05:31:05;8.50;66.30
20091;DHT22;10205;49.678;6.560;2023-04-03T05:33:33;8.50;66.40
20091;DHT22;10205;49.678;6.560;2023-04-03T05:36:03;8.50;66.50
20091;DHT22;10205;49.678;6.560;2023-04-03T05:38:32;8.50;66.50
20091;DHT22;10205;49.678;6.560;2023-04-03T05:40:59;8.50;66.70
20091;DHT22;10205;49.678;6.560;2023-04-03T05:43:30;8.40;66.70
20091;DHT22;10205;49.678;6.560;2023-04-03T05:45:58;8.40;66.70
20091;DHT22;10205;49.678;6.560;2023-04-03T05:48:25;8.40;66.70
20091;DHT22;10205;49.678;6.560;2023-04-03T05:50:53;8.30;66.80
20091;DHT22;10205;49.678;6.560;2023-04-03T05:53:25;8.30;66.90
20091;DHT22;10205;49.678;6.560;2023-04-03T05:55:54;8.30;66.90
20091;DHT22;10205;49.678;6.560;2023-04-03T05:58:21;8.30;66.80
20091;DHT22;10205;49.678;6.560;2023-04-03T06:00:49;8.30;66.70
20091;DHT22;10205;49.678;6.560;2023-04-03T06:03:19;8.20;66.70
20091;DHT22;10205;49.678;6.560;2023-04-03T06:05:46;8.20;66.70
20091;DHT22;10205;49.678;6.560;2023-04-03T06:08:15;8.20;66.70
20091;DHT22;10205;49.678;6.560;2023-04-03T06:10:43;8.20;66.50
20091;DHT22;10205;49.678;6.560;2023-04-03T06:13:11;8.10;66.50
20091;DHT22;10205;49.678;6.560;2023-04-03T06:15:38;8.10;66.30
20091;DHT22;10205;49.678;6.560;2023-04-03T06:18:06;8.10;66.50
20091;DHT22;10205;49.678;6.560;2023-04-03T06:20:33;8.00;66.30
20091;DHT22;10205;49.678;6.560;2023-04-03T06:23:01;7.90;66.20
20091;DHT22;10205;49.678;6.560;2023-04-03T06:25:31;7.90;66.20
20091;DHT22;10205;49.678;6.560;2023-04-03T06:27:59;7.90;66.40
20091;DHT22;10205;49.678;6.560;2023-04-03T06:30:29;7.90;66.60
20091;DHT22;10205;49.678;6.560;2023-04-03T06:32:56;7.80;66.60
20091;DHT22;10205;49.678;6.560;2023-04-03T06:35:24;7.80;66.70
20091;DHT22;10205;49.678;6.560;2023-04-03T06:37:53;7.80;66.70
20091;DHT22;10205;49.678;6.560;2023-04-03T06:40:23;7.80;67.70
20091;DHT22;10205;49.678;6.560;2023-04-03T06:42:53;7.80;67.00
20091;DHT22;10205;49.678;6.560;2023-04-03T06:45:20;7.80;67.10
20091;DHT22;10205;49.678;6.560;2023-04-03T06:47:48;7.70;67.10
20091;DHT22;10205;49.678;6.560;2023-04-03T06:50:15;7.70;67.10
20091;DHT22;10205;49.678;6.560;2023-04-03T06:52:42;7.80;67.30
20091;DHT22;10205;49.678;6.560;2023-04-03T06:55:10;7.70;67.20
20091;DHT22;10205;49.678;6.560;2023-04-03T06:57:37;7.70;67.30
20091;DHT22;10205;49.678;6.560;2023-04-03T07:00:07;7.70;67.30
20091;DHT22;10205;49.678;6.560;2023-04-03T07:02:35;7.70;67.40
20091;DHT22;10205;49.678;6.560;2023-04-03T07:05:03;7.70;67.20
20091;DHT22;10205;49.678;6.560;2023-04-03T07:07:32;7.70;66.90
20091;DHT22;10205;49.678;6.560;2023-04-03T07:09:59;7.70;66.70
20091;DHT22;10205;49.678;6.560;2023-04-03T07:12:27;7.70;66.50
20091;DHT22;10205;49.678;6.560;2023-04-03T07:14:54;7.70;66.40
20091;DHT22;10205;49.678;6.560;2023-04-03T07:17:22;7.70;66.40
20091;DHT22;10205;49.678;6.560;2023-04-03T07:19:51;7.70;66.30
20091;DHT22;10205;49.678;6.560;2023-04-03T07:22:18;7.70;66.50
20091;DHT22;10205;49.678;6.560;2023-04-03T07:24:45;7.70;66.50
20091;DHT22;10205;49.678;6.560;2023-04-03T07:27:13;7.70;66.50
20091;DHT22;10205;49.678;6.560;2023-04-03T07:29:41;7.70;66.40
20091;DHT22;10205;49.678;6.560;2023-04-03T07:32:08;7.70;66.50
20091;DHT22;10205;49.678;6.560;2023-04-03T07:34:37;7.70;66.60
20091;DHT22;10205;49.678;6.560;2023-04-03T07:37:04;7.70;66.50
20091;DHT22;10205;49.678;6.560;2023-04-03T07:39:32;7.80;66.60
20091;DHT22;10205;49.678;6.560;2023-04-03T07:42:00;7.80;66.70
20091;DHT22;10205;49.678;6.560;2023-04-03T07:44:27;7.80;66.80
20091;DHT22;10205;49.678;6.560;2023-04-03T07:46:55;7.80;66.70
20091;DHT22;10205;49.678;6.560;2023-04-03T07:49:22;7.80;66.70
20091;DHT22;10205;49.678;6.560;2023-04-03T07:51:51;7.90;66.70
20091;DHT22;10205;49.678;6.560;2023-04-03T07:54:18;8.00;66.80
20091;DHT22;10205;49.678;6.560;2023-04-03T07:56:46;8.00;66.80
20091;DHT22;10205;49.678;6.560;2023-04-03T07:59:14;8.00;66.90
20091;DHT22;10205;49.678;6.560;2023-04-03T08:01:41;8.10;66.70
20091;DHT22;10205;49.678;6.560;2023-04-03T08:04:08;8.10;66.70
20091;DHT22;10205;49.678;6.560;2023-04-03T08:06:35;8.20;66.60
20091;DHT22;10205;49.678;6.560;2023-04-03T08:09:04;8.20;67.40
20091;DHT22;10205;49.678;6.560;2023-04-03T08:11:32;8.30;66.40
20091;DHT22;10205;49.678;6.560;2023-04-03T08:13:59;8.40;66.30
20091;DHT22;10205;49.678;6.560;2023-04-03T08:16:28;8.50;66.30
20091;DHT22;10205;49.678;6.560;2023-04-03T08:18:55;8.50;66.10
20091;DHT22;10205;49.678;6.560;2023-04-03T08:21:22;8.50;66.00
20091;DHT22;10205;49.678;6.560;2023-04-03T08:23:50;8.60;65.80
20091;DHT22;10205;49.678;6.560;2023-04-03T08:26:20;8.60;65.70
20091;DHT22;10205;49.678;6.560;2023-04-03T08:28:48;8.70;65.60
20091;DHT22;10205;49.678;6.560;2023-04-03T08:31:18;8.80;65.50
20091;DHT22;10205;49.678;6.560;2023-04-03T08:33:46;8.80;65.40
20091;DHT22;10205;49.678;6.560;2023-04-03T08:36:20;8.90;65.50
20091;DHT22;10205;49.678;6.560;2023-04-03T08:38:49;9.00;65.30
20091;DHT22;10205;49.678;6.560;2023-04-03T08:41:27;9.10;65.50
20091;DHT22;10205;49.678;6.560;2023-04-03T08:44:12;9.10;64.90
20091;DHT22;10205;49.678;6.560;2023-04-03T08:47:04;9.20;65.20
20091;DHT22;10205;49.678;6.560;2023-04-03T08:49:42;9.30;64.20
20091;DHT22;10205;49.678;6.560;2023-04-03T08:52:15;9.30;64.60
20091;DHT22;10205;49.678;6.560;2023-04-03T08:54:51;9.50;64.50
20091;DHT22;10205;49.678;6.560;2023-04-03T08:57:28;9.50;64.50
20091;DHT22;10205;49.678;6.560;2023-04-03T09:00:00;9.60;63.80
20091;DHT22;10205;49.678;6.560;2023-04-03T09:02:34;9.70;64.00
20091;DHT22;10205;49.678;6.560;2023-04-03T09:05:11;9.70;63.40
20091;DHT22;10205;49.678;6.560;2023-04-03T09:07:43;9.80;63.60
20091;DHT22;10205;49.678;6.560;2023-04-03T09:10:15;9.90;63.60
20091;DHT22;10205;49.678;6.560;2023-04-03T09:12:55;10.00;63.60
20091;DHT22;10205;49.678;6.560;2023-04-03T09:15:28;10.10;62.60
20091;DHT22;10205;49.678;6.560;2023-04-03T09:18:04;10.10;63.10
20091;DHT22;10205;49.678;6.560;2023-04-03T09:20:44;10.20;62.60
20091;DHT22;10205;49.678;6.560;2023-04-03T09:23:19;10.30;62.50
20091;DHT22;10205;49.678;6.560;2023-04-03T09:25:54;10.40;61.80
20091;DHT22;10205;49.678;6.560;2023-04-03T09:28:32;10.50;62.10
20091;DHT22;10205;49.678;6.560;2023-04-03T09:31:05;10.50;61.70
20091;DHT22;10205;49.678;6.560;2023-04-03T09:33:43;10.60;61.70
20091;DHT22;10205;49.678;6.560;2023-04-03T09:36:11;10.70;61.10
20091;DHT22;10205;49.678;6.560;2023-04-03T09:38:39;10.80;60.60
20091;DHT22;10205;49.678;6.560;2023-04-03T09:41:11;10.80;60.50
20091;DHT22;10205;49.678;6.560;2023-04-03T09:43:52;10.90;60.10
20091;DHT22;10205;49.678;6.560;2023-04-03T09:46:31;10.90;59.30
20091;DHT22;10205;49.678;6.560;2023-04-03T09:49:02;11.00;59.40
20091;DHT22;10205;49.678;6.560;2023-04-03T09:51:31;11.10;59.60
20091;DHT22;10205;49.678;6.560;2023-04-03T09:53:58;11.10;59.80
20091;DHT22;10205;49.678;6.560;2023-04-03T09:56:27;11.20;59.10
20091;DHT22;10205;49.678;6.560;2023-04-03T09:59:18;11.20;58.80
20091;DHT22;10205;49.678;6.560;2023-04-03T10:01:58;11.30;58.40
20091;DHT22;10205;49.678;6.560;2023-04-03T10:04:38;11.40;58.30
20091;DHT22;10205;49.678;6.560;2023-04-03T10:07:27;11.50;58.20
20091;DHT22;10205;49.678;6.560;2023-04-03T10:09:58;11.60;58.10
20091;DHT22;10205;49.678;6.560;2023-04-03T10:12:29;11.70;59.30
20091;DHT22;10205;49.678;6.560;2023-04-03T10:14:59;11.70;59.40
20091;DHT22;10205;49.678;6.560;2023-04-03T10:17:37;11.80;58.50
20091;DHT22;10205;49.678;6.560;2023-04-03T10:20:26;11.90;58.90
20091;DHT22;10205;49.678;6.560;2023-04-03T10:23:14;12.00;58.00
20091;DHT22;10205;49.678;6.560;2023-04-03T10:25:54;12.10;57.70
20091;DHT22;10205;49.678;6.560;2023-04-03T10:28:34;12.20;57.80
20091;DHT22;10205;49.678;6.560;2023-04-03T10:31:16;12.30;57.20
20091;DHT22;10205;49.678;6.560;2023-04-03T10:33:56;12.40;57.00
20091;DHT22;10205;49.678;6.560;2023-04-03T10:36:37;12.50;56.90
20091;DHT22;10205;49.678;6.560;2023-04-03T10:39:22;12.60;56.80
20091;DHT22;10205;49.678;6.560;2023-04-03T10:42:02;12.70;56.10
20091;DHT22;10205;49.678;6.560;2023-04-03T10:44:42;12.80;56.30
20091;DHT22;10205;49.678;6.560;2023-04-03T10:47:27;12.80;56.30
20091;DHT22;10205;49.678;6.560;2023-04-03T10:50:05;12.90;55.50
20091;DHT22;10205;49.678;6.560;2023-04-03T10:52:49;13.00;55.80
20091;DHT22;10205;49.678;6.560;2023-04-03T10:55:31;13.10;56.20
20091;DHT22;10205;49.678;6.560;2023-04-03T10:58:05;13.10;55.90
20091;DHT22;10205;49.678;6.560;2023-04-03T11:00:39;13.20;55.80
20091;DHT22;10205;49.678;6.560;2023-04-03T11:03:14;13.30;55.40
20091;DHT22;10205;49.678;6.560;2023-04-03T11:05:52;13.40;54.50
20091;DHT22;10205;49.678;6.560;2023-04-03T11:08:27;13.50;55.10
20091;DHT22;10205;49.678;6.560;2023-04-03T11:11:01;13.60;54.90
20091;DHT22;10205;49.678;6.560;2023-04-03T11:13:35;13.60;54.80
20091;DHT22;10205;49.678;6.560;2023-04-03T11:16:08;13.70;54.80
20091;DHT22;10205;49.678;6.560;2023-04-03T11:18:45;13.80;54.50
20091;DHT22;10205;49.678;6.560;2023-04-03T11:21:20;13.80;54.40
20091;DHT22;10205;49.678;6.560;2023-04-03T11:23:51;13.90;53.70
20091;DHT22;10205;49.678;6.560;2023-04-03T11:26:25;14.00;54.10
20091;DHT22;10205;49.678;6.560;2023-04-03T11:28:59;14.00;53.90
20091;DHT22;10205;49.678;6.560;2023-04-03T11:31:38;14.10;53.60
20091;DHT22;10205;49.678;6.560;2023-04-03T11:34:30;14.10;53.30
20091;DHT22;10205;49.678;6.560;2023-04-03T11:37:06;14.20;53.10
20091;DHT22;10205;49.678;6.560;2023-04-03T11:39:51;14.20;53.60
20091;DHT22;10205;49.678;6.560;2023-04-03T11:42:35;14.30;53.50
20091;DHT22;10205;49.678;6.560;2023-04-03T11:45:26;14.30;52.10
20091;DHT22;10205;49.678;6.560;2023-04-03T11:48:05;14.40;52.30
20091;DHT22;10205;49.678;6.560;2023-04-03T11:50:43;14.40;54.10
20091;DHT22;10205;49.678;6.560;2023-04-03T11:53:32;14.40;53.10
20091;DHT22;10205;49.678;6.560;2023-04-03T11:59:22;14.60;53.20
20091;DHT22;10205;49.678;6.560;2023-04-03T12:01:51;14.60;52.00
20091;DHT22;10205;49.678;6.560;2023-04-03T12:04:21;14.60;53.10
20091;DHT22;10205;49.678;6.560;2023-04-03T12:07:00;14.70;53.20
20091;DHT22;10205;49.678;6.560;2023-04-03T12:09:57;14.70;52.50
20091;DHT22;10205;49.678;6.560;2023-04-03T12:12:35;14.70;52.40
20091;DHT22;10205;49.678;6.560;2023-04-03T12:15:50;14.80;52.60
20091;DHT22;10205;49.678;6.560;2023-04-03T12:18:57;14.80;52.20
20091;DHT22;10205;49.678;6.560;2023-04-03T12:24:39;14.90;52.20
20091;DHT22;10205;49.678;6.560;2023-04-03T12:27:30;14.90;52.30
20091;DHT22;10205;49.678;6.560;2023-04-03T12:30:15;15.00;51.30
20091;DHT22;10205;49.678;6.560;2023-04-03T12:33:20;15.00;51.50
20091;DHT22;10205;49.678;6.560;2023-04-03T12:36:02;15.00;51.00
20091;DHT22;10205;49.678;6.560;2023-04-03T12:39:03;15.00;51.60
20091;DHT22;10205;49.678;6.560;2023-04-03T12:41:49;15.00;51.30
20091;DHT22;10205;49.678;6.560;2023-04-03T12:44:42;15.10;51.20
20091;DHT22;10205;49.678;6.560;2023-04-03T12:47:25;15.10;50.80
20091;DHT22;10205;49.678;6.560;2023-04-03T12:49:59;15.10;51.70
20091;DHT22;10205;49.678;6.560;2023-04-03T12:52:33;15.10;51.50
20091;DHT22;10205;49.678;6.560;2023-04-03T12:55:15;15.10;51.40
20091;DHT22;10205;49.678;6.560;2023-04-03T12:57:43;15.10;51.10
20091;DHT22;10205;49.678;6.560;2023-04-03T13:00:32;15.10;51.00
20091;DHT22;10205;49.678;6.560;2023-04-03T13:03:05;15.10;50.30
20091;DHT22;10205;49.678;6.560;2023-04-03T13:05:44;15.20;50.90
20091;DHT22;10205;49.678;6.560;2023-04-03T13:08:13;15.20;50.80
20091;DHT22;10205;49.678;6.560;2023-04-03T13:10:53;15.20;51.00
20091;DHT22;10205;49.678;6.560;2023-04-03T13:13:22;15.20;51.20
20091;DHT22;10205;49.678;6.560;2023-04-03T13:15:52;15.30;50.70
20091;DHT22;10205;49.678;6.560;2023-04-03T13:18:25;15.30;50.60
20091;DHT22;10205;49.678;6.560;2023-04-03T13:21:02;15.30;50.50
20091;DHT22;10205;49.678;6.560;2023-04-03T13:23:32;15.40;50.50
20091;DHT22;10205;49.678;6.560;2023-04-03T13:26:04;15.40;50.10
20091;DHT22;10205;49.678;6.560;2023-04-03T13:28:35;15.40;49.80
20091;DHT22;10205;49.678;6.560;2023-04-03T13:31:06;15.40;49.60
20091;DHT22;10205;49.678;6.560;2023-04-03T13:33:54;15.50;49.40
20091;DHT22;10205;49.678;6.560;2023-04-03T13:36:26;15.50;48.90
20091;DHT22;10205;49.678;6.560;2023-04-03T13:39:02;15.50;48.70
20091;DHT22;10205;49.678;6.560;2023-04-03T13:41:34;15.50;48.80
20091;DHT22;10205;49.678;6.560;2023-04-03T13:44:17;15.50;49.10
20091;DHT22;10205;49.678;6.560;2023-04-03T13:46:54;15.50;47.50
20091;DHT22;10205;49.678;6.560;2023-04-03T13:49:32;15.50;49.40
20091;DHT22;10205;49.678;6.560;2023-04-03T13:52:02;15.50;49.10
20091;DHT22;10205;49.678;6.560;2023-04-03T13:54:48;15.50;49.00
20091;DHT22;10205;49.678;6.560;2023-04-03T13:57:22;15.50;48.50
20091;DHT22;10205;49.678;6.560;2023-04-03T13:59:49;15.50;48.30
20091;DHT22;10205;49.678;6.560;2023-04-03T14:02:20;15.50;48.30
20091;DHT22;10205;49.678;6.560;2023-04-03T14:04:58;15.50;48.50
20091;DHT22;10205;49.678;6.560;2023-04-03T14:07:28;15.50;48.10
20091;DHT22;10205;49.678;6.560;2023-04-03T14:09:56;15.50;48.60
20091;DHT22;10205;49.678;6.560;2023-04-03T14:12:28;15.50;48.40
20091;DHT22;10205;49.678;6.560;2023-04-03T14:14:59;15.50;48.60
20091;DHT22;10205;49.678;6.560;2023-04-03T14:17:29;15.50;48.60
20091;DHT22;10205;49.678;6.560;2023-04-03T14:19:57;15.50;48.40
20091;DHT22;10205;49.678;6.560;2023-04-03T14:22:28;15.50;47.90
20091;DHT22;10205;49.678;6.560;2023-04-03T14:24:59;15.50;47.40
20091;DHT22;10205;49.678;6.560;2023-04-03T14:27:30;15.50;47.20
20091;DHT22;10205;49.678;6.560;2023-04-03T14:30:02;15.50;46.90
20091;DHT22;10205;49.678;6.560;2023-04-03T14:32:31;15.50;48.00
20091;DHT22;10205;49.678;6.560;2023-04-03T14:35:00;15.50;47.30
20091;DHT22;10205;49.678;6.560;2023-04-03T14:37:30;15.50;47.40
20091;DHT22;10205;49.678;6.560;2023-04-03T14:39:59;15.50;47.20
20091;DHT22;10205;49.678;6.560;2023-04-03T14:42:32;15.50;46.60
20091;DHT22;10205;49.678;6.560;2023-04-03T14:45:04;15.50;46.40
20091;DHT22;10205;49.678;6.560;2023-04-03T14:47:36;15.40;46.90
20091;DHT22;10205;49.678;6.560;2023-04-03T14:50:11;15.40;46.80
20091;DHT22;10205;49.678;6.560;2023-04-03T14:52:40;15.40;47.90
20091;DHT22;10205;49.678;6.560;2023-04-03T14:55:08;15.40;48.40
20091;DHT22;10205;49.678;6.560;2023-04-03T14:57:38;15.40;48.90
20091;DHT22;10205;49.678;6.560;2023-04-03T15:00:11;15.50;49.00
20091;DHT22;10205;49.678;6.560;2023-04-03T15:02:39;15.50;49.40
20091;DHT22;10205;49.678;6.560;2023-04-03T15:05:09;15.60;49.00
20091;DHT22;10205;49.678;6.560;2023-04-03T15:07:39;15.70;49.90
20091;DHT22;10205;49.678;6.560;2023-04-03T15:10:16;15.70;49.10
20091;DHT22;10205;49.678;6.560;2023-04-03T15:12:47;15.80;48.10
20091;DHT22;10205;49.678;6.560;2023-04-03T15:15:17;15.90;48.90
20091;DHT22;10205;49.678;6.560;2023-04-03T15:17:48;15.90;48.50
20091;DHT22;10205;49.678;6.560;2023-04-03T15:20:21;16.00;48.70
20091;DHT22;10205;49.678;6.560;2023-04-03T15:22:49;16.00;49.00
20091;DHT22;10205;49.678;6.560;2023-04-03T15:25:17;16.10;49.20
20091;DHT22;10205;49.678;6.560;2023-04-03T15:27:46;16.10;48.30
20091;DHT22;10205;49.678;6.560;2023-04-03T15:30:18;16.20;49.20
20091;DHT22;10205;49.678;6.560;2023-04-03T15:32:46;16.20;47.70
20091;DHT22;10205;49.678;6.560;2023-04-03T15:35:14;16.30;48.60
20091;DHT22;10205;49.678;6.560;2023-04-03T15:37:41;16.30;48.90
20091;DHT22;10205;49.678;6.560;2023-04-03T15:40:09;16.30;48.50
20091;DHT22;10205;49.678;6.560;2023-04-03T15:42:37;16.30;48.20
20091;DHT22;10205;49.678;6.560;2023-04-03T15:45:08;16.30;47.60
20091;DHT22;10205;49.678;6.560;2023-04-03T15:47:36;16.30;45.80
20091;DHT22;10205;49.678;6.560;2023-04-03T15:50:04;16.30;46.00
20091;DHT22;10205;49.678;6.560;2023-04-03T15:52:33;16.30;44.90
20091;DHT22;10205;49.678;6.560;2023-04-03T15:55:01;16.30;45.10
20091;DHT22;10205;49.678;6.560;2023-04-03T15:57:28;16.30;44.40
20091;DHT22;10205;49.678;6.560;2023-04-03T15:59:55;16.20;45.20
20091;DHT22;10205;49.678;6.560;2023-04-03T16:02:24;16.20;46.00
20091;DHT22;10205;49.678;6.560;2023-04-03T16:04:53;16.20;45.40
20091;DHT22;10205;49.678;6.560;2023-04-03T16:07:21;16.20;45.80
20091;DHT22;10205;49.678;6.560;2023-04-03T16:09:48;16.20;46.50
20091;DHT22;10205;49.678;6.560;2023-04-03T16:12:16;16.10;46.90